Time;durP1;ratioP1;P1;durP2;ratioP2;P2;SDS_P1;SDS_P2;PMS_P1;PMS_P2;Temp;Humidity;BMP_temperature;BMP_pressure;BME280_temperature;BME280_humidity;BME280_pressure;Samples;Min_cycle;Max_cycle;Signal;HPM_P1;HPM_P2
2022/05/13 00:02:17;;;;;;;6.47;5.87;;;18.20;99.90;;;;;;6129415;23;20856;-78
2022/05/13 00:04:44;;;;;;;6.53;6.00;;;18.20;99.90;;;;;;6119236;23;20449;-79
2022/05/13 00:07:12;;;;;;;6.87;5.67;;;18.20;99.90;;;;;;6129852;23;20478;-79
2022/05/13 00:10:00;;;;;;;6.70;6.10;;;18.20;99.90;;;;;;6144008;23;20437;-80
2022/05/13 00:12:29;;;;;;;6.63;6.13;;;18.20;99.90;;;;;;6142028;23;20434;-79
2022/05/13 00:14:56;;;;;;;6.97;6.47;;;18.20;99.90;;;;;;6138790;23;20497;-78
2022/05/13 00:17:25;;;;;;;6.97;6.20;;;18.20;99.90;;;;;;6133093;23;20484;-78
2022/05/13 00:19:52;;;;;;;6.43;5.90;;;18.20;99.90;;;;;;6118935;23;20446;-77
2022/05/13 00:22:19;;;;;;;7.10;6.50;;;18.20;99.90;;;;;;6121318;23;20524;-78
2022/05/13 00:24:47;;;;;;;7.30;6.60;;;18.20;99.90;;;;;;6115048;23;20445;-78
2022/05/13 00:27:14;;;;;;;6.87;6.37;;;18.20;99.90;;;;;;6117818;23;20536;-78
2022/05/13 00:29:42;;;;;;;7.10;6.40;;;18.20;99.90;;;;;;6116183;23;20472;-78
2022/05/13 00:32:10;;;;;;;7.10;6.50;;;18.20;99.90;;;;;;6116439;23;20477;-78
2022/05/13 00:34:38;;;;;;;7.23;6.60;;;18.20;99.90;;;;;;6114108;23;20457;-78
2022/05/13 00:37:05;;;;;;;7.30;6.70;;;18.20;99.90;;;;;;6119208;23;20468;-78
2022/05/13 00:39:32;;;;;;;7.57;6.97;;;18.20;99.90;;;;;;6116267;23;20457;-78
2022/05/13 00:42:07;;;;;;;6.67;6.17;;;18.20;99.90;;;;;;6113100;23;20871;-78
2022/05/13 00:44:34;;;;;;;6.50;6.10;;;18.20;99.90;;;;;;6115179;23;20440;-78
2022/05/13 00:47:02;;;;;;;6.67;6.17;;;18.20;99.90;;;;;;6116123;23;20857;-79
2022/05/13 00:49:31;;;;;;;8.83;6.60;;;18.20;99.90;;;;;;6124664;23;20748;-78
2022/05/13 00:52:01;;;;;;;6.30;5.80;;;18.20;99.90;;;;;;6116724;23;20469;-78
2022/05/13 00:54:29;;;;;;;6.70;6.20;;;18.20;99.90;;;;;;6116328;23;20465;-78
2022/05/13 00:56:58;;;;;;;6.40;5.90;;;18.30;99.90;;;;;;6113742;23;20990;-78
2022/05/13 00:59:28;;;;;;;6.37;5.77;;;18.30;99.90;;;;;;6116033;23;20441;-79
2022/05/13 01:01:55;;;;;;;6.10;5.60;;;18.30;99.90;;;;;;6117161;23;20465;-79
2022/05/13 01:04:23;;;;;;;6.20;5.70;;;18.30;99.90;;;;;;6116634;23;20444;-78
2022/05/13 01:06:52;;;;;;;6.13;5.67;;;18.20;99.90;;;;;;6115531;23;20457;-79
2022/05/13 01:09:21;;;;;;;6.57;6.07;;;18.30;99.90;;;;;;6118238;23;20441;-78
2022/05/13 01:11:52;;;;;;;6.47;5.97;;;18.30;99.90;;;;;;6115251;23;20837;-78
2022/05/13 01:14:24;;;;;;;6.63;6.03;;;18.30;99.90;;;;;;6118240;23;20437;-78
2022/05/13 01:19:36;;;;;;;7.00;6.47;;;18.20;99.90;;;;;;6112531;23;20487;-78
2022/05/13 01:22:14;;;;;;;6.77;6.20;;;17.80;99.90;;;;;;6105460;23;20426;-78
2022/05/13 01:24:42;;;;;;;7.83;6.80;;;17.50;99.90;;;;;;6114806;23;20437;-78
2022/05/13 01:27:09;;;;;;;6.57;5.90;;;17.20;99.90;;;;;;6116206;23;20458;-78
2022/05/13 01:29:36;;;;;;;6.50;6.00;;;16.90;99.90;;;;;;6112870;23;20444;-78
2022/05/13 01:32:04;;;;;;;5.47;5.03;;;16.80;99.90;;;;;;6116487;23;20584;-78
2022/05/13 01:34:31;;;;;;;5.70;5.30;;;16.70;99.90;;;;;;6116076;23;20956;-78
2022/05/13 01:36:57;;;;;;;5.90;5.40;;;16.50;99.90;;;;;;6118947;23;20497;-78
2022/05/13 01:39:26;;;;;;;6.73;6.13;;;16.50;99.90;;;;;;6116323;23;20517;-78
2022/05/13 01:41:53;;;;;;;6.80;6.10;;;16.40;99.90;;;;;;6106269;23;21066;-78
2022/05/13 01:44:20;;;;;;;7.63;6.93;;;16.50;99.90;;;;;;6118593;23;20438;-78
2022/05/13 01:46:47;;;;;;;7.43;6.73;;;16.40;99.90;;;;;;6117233;23;20496;-78
2022/05/13 01:49:14;;;;;;;7.23;6.63;;;16.50;99.90;;;;;;6108437;23;20982;-78
2022/05/13 01:51:41;;;;;;;7.60;7.00;;;16.50;99.90;;;;;;6097342;23;20964;-78
2022/05/13 01:54:08;;;;;;;7.50;6.87;;;16.60;99.90;;;;;;6116950;23;20460;-78
2022/05/13 01:56:36;;;;;;;8.30;7.60;;;16.60;99.90;;;;;;6116604;23;20504;-78
2022/05/13 01:59:03;;;;;;;7.53;6.83;;;16.70;99.90;;;;;;6117483;23;20520;-79
2022/05/13 02:01:30;;;;;;;6.90;6.30;;;16.70;99.90;;;;;;6114597;23;20476;-78
2022/05/13 02:03:56;;;;;;;6.90;6.30;;;16.70;99.90;;;;;;6115862;23;20437;-78
2022/05/13 02:06:25;;;;;;;6.60;6.10;;;16.60;99.90;;;;;;6116678;23;20462;-78
2022/05/13 02:08:56;;;;;;;5.90;5.40;;;16.50;99.90;;;;;;6117453;23;20449;-78
2022/05/13 02:11:25;;;;;;;8.63;5.83;;;16.40;99.90;;;;;;6104852;23;20842;-77
2022/05/13 02:13:53;;;;;;;7.80;6.23;;;16.40;99.90;;;;;;6118087;23;20481;-77
2022/05/13 02:16:25;;;;;;;6.43;5.80;;;16.20;99.90;;;;;;6090257;23;20569;-78
2022/05/13 02:18:52;;;;;;;7.00;6.37;;;16.20;99.90;;;;;;6118023;23;20476;-77
2022/05/13 02:21:20;;;;;;;6.63;5.93;;;16.20;99.90;;;;;;6121284;23;20469;-78
2022/05/13 02:23:48;;;;;;;7.17;6.47;;;16.20;99.90;;;;;;6113309;23;20479;-77
2022/05/13 02:26:17;;;;;;;7.77;6.90;;;16.10;99.90;;;;;;6118745;23;20460;-78
2022/05/13 02:28:44;;;;;;;7.30;6.53;;;16.00;99.90;;;;;;6113093;23;20459;-78
2022/05/13 02:31:14;;;;;;;7.27;6.57;;;15.90;99.90;;;;;;6115091;23;20437;-78
2022/05/13 02:33:42;;;;;;;8.40;7.50;;;15.90;99.90;;;;;;6116414;23;20450;-77
2022/05/13 02:36:11;;;;;;;8.03;7.10;;;15.90;99.90;;;;;;6117053;23;20550;-78
2022/05/13 02:38:38;;;;;;;8.17;7.37;;;16.00;99.90;;;;;;6115050;23;20465;-78
2022/05/13 02:41:12;;;;;;;7.80;7.10;;;16.00;99.90;;;;;;6117158;23;20821;-78
2022/05/13 02:43:40;;;;;;;7.50;6.90;;;16.00;99.90;;;;;;6109438;23;20804;-78
2022/05/13 02:46:07;;;;;;;8.83;7.07;;;16.00;99.90;;;;;;6116965;23;20491;-77
2022/05/13 02:48:36;;;;;;;7.87;7.27;;;16.00;99.90;;;;;;6117586;23;20444;-78
2022/05/13 02:51:03;;;;;;;7.60;7.00;;;16.00;99.90;;;;;;6112848;23;20457;-78
2022/05/13 02:53:30;;;;;;;7.73;7.10;;;16.00;99.90;;;;;;6113709;23;20445;-78
2022/05/13 02:55:57;;;;;;;8.83;7.70;;;16.00;99.90;;;;;;6120772;23;20477;-78
2022/05/13 02:58:25;;;;;;;8.93;8.10;;;16.10;99.90;;;;;;6119222;23;20439;-78
2022/05/13 03:00:52;;;;;;;8.43;7.63;;;16.10;99.90;;;;;;6114301;23;20446;-78
2022/05/13 03:03:20;;;;;;;9.10;8.20;;;16.20;99.90;;;;;;6104371;23;20437;-79
2022/05/13 03:05:49;;;;;;;7.80;7.10;;;16.10;99.90;;;;;;6119551;23;20500;-78
2022/05/13 03:08:15;;;;;;;7.13;6.43;;;16.10;99.90;;;;;;6119086;23;20479;-78
2022/05/13 03:10:42;;;;;;;8.40;7.67;;;16.20;99.90;;;;;;6116331;23;20437;-78
2022/05/13 03:13:10;;;;;;;7.13;6.53;;;16.20;99.90;;;;;;6105500;23;20525;-78
2022/05/13 03:15:37;;;;;;;7.57;6.87;;;16.30;99.90;;;;;;6117827;23;20477;-77
2022/05/13 03:18:05;;;;;;;7.57;6.97;;;16.30;99.90;;;;;;6106704;23;20532;-78
2022/05/13 03:20:32;;;;;;;6.77;6.17;;;16.30;99.90;;;;;;6115559;23;20448;-78
2022/05/13 03:23:01;;;;;;;8.00;7.23;;;16.30;99.90;;;;;;6115678;23;20517;-78
2022/05/13 03:25:28;;;;;;;7.03;6.47;;;16.30;99.90;;;;;;6117956;23;20478;-78
2022/05/13 03:27:55;;;;;;;7.93;7.20;;;16.30;99.90;;;;;;6118382;23;20520;-78
2022/05/13 03:30:24;;;;;;;9.70;7.10;;;16.30;99.90;;;;;;6123515;23;20449;-78
2022/05/13 03:32:52;;;;;;;7.60;6.83;;;16.30;99.90;;;;;;6114562;23;20520;-78
2022/05/13 03:35:20;;;;;;;8.93;7.10;;;16.40;99.90;;;;;;6117377;23;20472;-78
2022/05/13 03:37:47;;;;;;;7.97;7.03;;;16.40;99.90;;;;;;6117011;23;20448;-78
2022/05/13 03:40:17;;;;;;;8.60;7.10;;;16.40;99.90;;;;;;6117423;23;20532;-78
2022/05/13 03:42:44;;;;;;;7.90;7.13;;;16.40;99.90;;;;;;6110310;23;20840;-78
2022/05/13 03:45:30;;;;;;;7.73;7.07;;;16.50;99.90;;;;;;6115903;23;20473;-77
2022/05/13 03:47:57;;;;;;;7.80;7.07;;;16.50;99.90;;;;;;6119037;23;20445;-78
2022/05/13 03:50:24;;;;;;;8.00;7.23;;;16.50;99.90;;;;;;6117387;23;20953;-78
2022/05/13 03:52:52;;;;;;;8.00;7.30;;;16.50;99.90;;;;;;6117879;23;20533;-77
2022/05/13 03:55:22;;;;;;;8.33;7.53;;;16.50;99.90;;;;;;6107451;23;20481;-78
2022/05/13 03:57:49;;;;;;;9.50;7.83;;;16.50;99.90;;;;;;6111229;23;20567;-78
2022/05/13 04:00:17;;;;;;;7.93;7.23;;;16.50;99.90;;;;;;6123139;23;20467;-78
2022/05/13 04:02:44;;;;;;;8.60;7.90;;;16.50;99.90;;;;;;6122439;23;20540;-80
2022/05/13 04:10:43;;;;;;;8.63;8.00;;;16.50;99.90;;;;;;6112987;23;20448;-79
2022/05/13 04:16:07;;;;;;;9.10;8.13;;;16.50;99.90;;;;;;6111933;23;20469;-79
2022/05/13 04:18:38;;;;;;;8.30;7.60;;;16.50;99.90;;;;;;6115977;23;20528;-79
2022/05/13 04:21:07;;;;;;;9.80;8.90;;;16.40;99.90;;;;;;6115865;23;20524;-79
2022/05/13 04:23:37;;;;;;;9.07;8.27;;;16.40;99.90;;;;;;6117844;23;20521;-79
2022/05/13 04:26:05;;;;;;;8.50;7.70;;;16.40;99.90;;;;;;6115189;23;20552;-79
2022/05/13 04:28:32;;;;;;;10.27;8.10;;;16.40;99.90;;;;;;6116250;23;20485;-79
2022/05/13 04:31:00;;;;;;;8.60;7.90;;;16.50;99.90;;;;;;6116478;23;20444;-79
2022/05/13 04:33:27;;;;;;;7.70;6.90;;;16.50;99.90;;;;;;6112810;23;20496;-78
2022/05/13 04:35:54;;;;;;;7.87;7.17;;;16.60;99.90;;;;;;6112175;23;20488;-79
2022/05/13 04:38:23;;;;;;;7.53;6.93;;;16.70;99.90;;;;;;6115465;23;20798;-80
2022/05/13 04:40:49;;;;;;;7.37;6.73;;;16.80;99.90;;;;;;6114286;23;20925;-77
2022/05/13 04:43:17;;;;;;;9.80;7.13;;;16.90;99.90;;;;;;6104785;23;20529;-77
2022/05/13 04:45:45;;;;;;;7.20;6.50;;;17.00;99.90;;;;;;6112124;23;20470;-78
2022/05/13 04:48:18;;;;;;;6.67;6.20;;;17.10;99.90;;;;;;6114877;23;20851;-77
2022/05/13 04:50:51;;;;;;;9.97;6.07;;;17.20;99.90;;;;;;6115385;23;20532;-77
2022/05/13 04:53:21;;;;;;;6.93;6.33;;;17.30;99.90;;;;;;6117984;23;20437;-77
2022/05/13 04:55:49;;;;;;;7.60;6.90;;;17.40;99.90;;;;;;6117303;23;20479;-79
2022/05/13 04:58:17;;;;;;;7.77;6.97;;;17.40;99.90;;;;;;6114140;23;20468;-79
2022/05/13 05:00:46;;;;;;;6.63;6.13;;;17.40;99.90;;;;;;6118361;23;20442;-79
2022/05/13 05:03:13;;;;;;;7.13;6.10;;;17.40;99.90;;;;;;6116818;23;20489;-79
2022/05/13 05:05:42;;;;;;;7.90;6.30;;;17.40;99.90;;;;;;6116999;23;20461;-79
2022/05/13 05:08:09;;;;;;;6.43;5.93;;;17.40;99.90;;;;;;6118014;23;20438;-79
2022/05/13 05:10:36;;;;;;;9.43;7.00;;;17.40;99.90;;;;;;6106979;23;20447;-78
2022/05/13 05:13:04;;;;;;;7.23;6.53;;;17.40;99.90;;;;;;6112915;23;20474;-78
2022/05/13 05:15:32;;;;;;;6.93;6.33;;;17.30;99.90;;;;;;6088109;23;20460;-79
2022/05/13 05:17:59;;;;;;;6.40;5.90;;;17.40;99.90;;;;;;6099974;23;20480;-78
2022/05/13 05:20:27;;;;;;;6.27;5.67;;;17.50;99.90;;;;;;6109531;23;20816;-82
2022/05/13 05:22:54;;;;;;;6.30;5.70;;;17.60;99.90;;;;;;6105960;23;20912;-82
2022/05/13 05:25:28;;;;;;;6.40;5.80;;;17.60;99.90;;;;;;6128329;23;20489;-83
2022/05/13 05:27:56;;;;;;;5.80;5.30;;;17.70;99.90;;;;;;6111939;23;20828;-83
2022/05/13 05:30:24;;;;;;;7.23;6.23;;;17.80;99.90;;;;;;6115858;23;20429;-82
2022/05/13 05:32:53;;;;;;;6.53;5.30;;;17.90;99.90;;;;;;6083246;23;20544;-82
2022/05/13 05:35:23;;;;;;;7.67;5.40;;;18.00;99.90;;;;;;6114176;23;20889;-81
2022/05/13 05:37:50;;;;;;;5.47;5.07;;;18.10;99.90;;;;;;6109264;23;20472;-82
2022/05/13 05:40:20;;;;;;;6.00;5.40;;;18.30;99.90;;;;;;6112768;23;20529;-82
2022/05/13 05:42:48;;;;;;;7.80;5.70;;;18.50;99.90;;;;;;6113065;23;20434;-82
2022/05/13 05:45:17;;;;;;;7.10;4.90;;;18.50;99.90;;;;;;6103049;23;20453;-82
2022/05/13 05:47:45;;;;;;;6.07;5.17;;;18.50;99.90;;;;;;6114282;23;20438;-82
2022/05/13 05:50:16;;;;;;;5.10;4.70;;;18.50;99.90;;;;;;6098055;23;20437;-77
2022/05/13 05:52:43;;;;;;;5.20;4.70;;;18.50;99.90;;;;;;6110642;23;20962;-85
2022/05/13 05:57:58;;;;;;;5.97;4.43;;;18.50;99.90;;;;;;6115869;23;20456;-83
2022/05/13 06:00:26;;;;;;;7.13;5.00;;;18.30;99.90;;;;;;6114825;23;20457;-83
2022/05/13 06:02:53;;;;;;;5.70;4.90;;;18.30;99.90;;;;;;6109503;23;20522;-78
2022/05/13 06:05:23;;;;;;;5.30;4.80;;;18.20;99.90;;;;;;6102042;23;20479;-77
2022/05/13 06:07:50;;;;;;;5.73;5.27;;;18.20;99.90;;;;;;6114507;23;20449;-77
2022/05/13 06:10:18;;;;;;;5.20;4.70;;;18.20;99.90;;;;;;6128673;23;20441;-79
2022/05/13 06:12:45;;;;;;;6.90;4.87;;;18.20;99.90;;;;;;6122895;23;20851;-77
2022/05/13 06:15:14;;;;;;;5.20;4.47;;;18.30;99.90;;;;;;6115555;23;20470;-79
2022/05/13 06:17:45;;;;;;;5.77;5.13;;;18.40;99.90;;;;;;6110422;23;20887;-79
2022/05/13 06:20:14;;;;;;;5.80;4.97;;;18.50;99.90;;;;;;6113991;23;20460;-79
2022/05/13 06:22:42;;;;;;;6.30;5.20;;;18.50;99.90;;;;;;6122946;23;20436;-78
2022/05/13 06:25:11;;;;;;;5.33;4.83;;;18.60;99.90;;;;;;6135127;23;20449;-77
2022/05/13 06:27:38;;;;;;;7.67;4.47;;;18.70;99.90;;;;;;6130135;23;21181;-76
2022/05/13 06:30:07;;;;;;;4.90;4.50;;;18.70;99.90;;;;;;6131620;23;20437;-78
2022/05/13 06:32:34;;;;;;;5.30;4.50;;;18.90;99.90;;;;;;6112210;23;20481;-77
2022/05/13 06:35:02;;;;;;;5.47;4.70;;;19.10;99.90;;;;;;6114313;23;20454;-78
2022/05/13 06:37:29;;;;;;;6.70;4.00;;;19.20;99.90;;;;;;6107420;23;20562;-79
2022/05/13 06:39:57;;;;;;;5.00;4.50;;;19.20;99.90;;;;;;6112946;23;20430;-78
2022/05/13 06:42:24;;;;;;;4.70;4.30;;;19.30;99.90;;;;;;6114618;23;20438;-77
2022/05/13 06:44:51;;;;;;;4.80;4.30;;;19.50;99.90;;;;;;6110962;23;20457;-79
2022/05/13 06:47:18;;;;;;;5.00;4.50;;;19.50;99.90;;;;;;6110311;23;20441;-79
2022/05/13 06:49:45;;;;;;;5.57;4.53;;;19.40;99.90;;;;;;6110830;23;20436;-79
2022/05/13 06:52:13;;;;;;;5.43;4.20;;;19.40;99.90;;;;;;6098413;23;20441;-79
2022/05/13 06:54:40;;;;;;;5.83;4.10;;;19.60;99.90;;;;;;6097988;23;20457;-79
2022/05/13 06:57:10;;;;;;;5.47;3.93;;;19.60;99.90;;;;;;6121652;23;20472;-80
2022/05/13 06:59:37;;;;;;;6.07;4.43;;;19.50;99.90;;;;;;6105903;23;20441;-78
2022/05/13 07:02:05;;;;;;;6.00;4.07;;;19.50;99.90;;;;;;6118345;23;20429;-74
2022/05/13 07:04:34;;;;;;;4.97;4.13;;;19.60;99.90;;;;;;6111085;23;20441;-79
2022/05/13 07:07:01;;;;;;;5.60;4.20;;;19.70;99.90;;;;;;6105575;23;20429;-79
2022/05/13 07:09:28;;;;;;;5.47;3.90;;;19.70;99.90;;;;;;6106592;23;20433;-80
2022/05/13 07:11:55;;;;;;;6.67;4.40;;;19.80;99.90;;;;;;6115352;23;20435;-78
2022/05/13 07:14:24;;;;;;;4.50;4.00;;;19.80;99.90;;;;;;6113173;23;20438;-79
2022/05/13 07:16:50;;;;;;;6.57;3.50;;;19.90;99.90;;;;;;6109622;23;21200;-78
2022/05/13 07:19:18;;;;;;;3.90;3.20;;;19.90;99.90;;;;;;6111826;23;20473;-78
2022/05/13 07:21:46;;;;;;;10.10;2.90;;;20.00;99.90;;;;;;6114228;23;20480;-79
2022/05/13 07:24:13;;;;;;;4.33;3.90;;;20.10;99.90;;;;;;6111845;23;20434;-78
2022/05/13 07:26:40;;;;;;;3.90;3.20;;;20.10;99.90;;;;;;6103708;23;20457;-79
2022/05/13 07:29:07;;;;;;;3.67;3.27;;;20.00;99.90;;;;;;6114886;23;20434;-78
2022/05/13 07:31:36;;;;;;;5.30;3.40;;;19.80;99.90;;;;;;6113439;23;20944;-78
2022/05/13 07:34:03;;;;;;;6.80;3.47;;;19.70;99.90;;;;;;6105759;23;20422;-78
2022/05/13 07:36:30;;;;;;;4.83;3.23;;;19.60;99.90;;;;;;6105820;23;20462;-79
2022/05/13 07:41:42;;;;;;;5.83;3.43;;;19.40;99.90;;;;;;6117112;23;20429;-87
2022/05/13 07:44:10;;;;;;;6.80;3.57;;;19.30;99.90;;;;;;6110906;23;20559;-78
2022/05/13 07:46:38;;;;;;;5.53;4.13;;;19.40;99.90;;;;;;6116898;23;20448;-80
2022/05/13 07:49:05;;;;;;;7.77;3.87;;;19.50;99.90;;;;;;6128886;23;20458;-81
2022/05/13 07:51:33;;;;;;;6.47;3.67;;;19.60;99.90;;;;;;6122113;23;20610;-83
2022/05/13 07:54:00;;;;;;;4.00;3.10;;;19.80;99.90;;;;;;6124992;23;20531;-86
2022/05/13 07:56:27;;;;;;;5.93;3.80;;;20.10;99.90;;;;;;6105778;23;21563;-80
2022/05/13 07:58:54;;;;;;;3.97;3.43;;;20.30;99.90;;;;;;6100348;23;20498;-80
2022/05/13 08:01:21;;;;;;;4.70;3.20;;;20.40;99.90;;;;;;6114635;23;20453;-80
2022/05/13 08:03:51;;;;;;;4.60;3.20;;;20.40;99.90;;;;;;6111111;23;20458;-80
2022/05/13 08:06:18;;;;;;;8.03;3.60;;;20.30;99.90;;;;;;6112406;23;20441;-79
2022/05/13 08:08:50;;;;;;;4.20;3.00;;;20.10;99.90;;;;;;6107604;23;20484;-80
2022/05/13 08:11:17;;;;;;;4.00;3.10;;;20.10;99.90;;;;;;6115625;23;20518;-80
2022/05/13 08:13:44;;;;;;;3.73;2.40;;;20.00;99.90;;;;;;6117503;23;20438;-80
2022/05/13 08:16:13;;;;;;;4.77;2.93;;;20.00;99.90;;;;;;6113067;23;20891;-80
2022/05/13 08:18:41;;;;;;;6.20;3.67;;;20.00;99.90;;;;;;6113651;23;20477;-80
2022/05/13 08:21:10;;;;;;;5.87;3.20;;;20.10;99.90;;;;;;6112593;23;20792;-81
2022/05/13 08:23:37;;;;;;;5.50;3.30;;;20.20;99.90;;;;;;6103781;23;20480;-80
2022/05/13 08:26:06;;;;;;;4.07;3.07;;;20.30;99.90;;;;;;6109677;23;20441;-80
2022/05/13 08:28:33;;;;;;;4.37;2.90;;;20.50;99.90;;;;;;6119339;23;20436;-80
2022/05/13 08:31:00;;;;;;;3.93;2.87;;;20.70;99.90;;;;;;6116867;23;20988;-81
2022/05/13 08:33:28;;;;;;;4.83;2.93;;;20.90;99.90;;;;;;6113149;23;20440;-81
2022/05/13 08:35:57;;;;;;;4.33;2.60;;;21.40;99.90;;;;;;6088295;23;20858;-82
2022/05/13 08:38:27;;;;;;;4.10;2.80;;;21.70;99.90;;;;;;6114780;23;20558;-81
2022/05/13 08:41:09;;;;;;;3.90;2.73;;;21.80;99.90;;;;;;6106241;23;20470;-81
2022/05/13 08:43:39;;;;;;;5.07;2.97;;;22.00;99.90;;;;;;6109948;23;20768;-81
2022/05/13 08:46:14;;;;;;;4.10;2.80;;;22.10;99.90;;;;;;6109728;23;20440;-82
2022/05/13 08:48:48;;;;;;;3.97;2.93;;;22.30;99.90;;;;;;6109999;23;20482;-82
2022/05/13 08:51:18;;;;;;;8.53;2.90;;;22.80;99.90;;;;;;6107833;23;20479;-81
2022/05/13 08:53:57;;;;;;;5.30;2.87;;;23.30;99.90;;;;;;6111845;23;20439;-82
2022/05/13 08:56:26;;;;;;;4.43;3.40;;;23.70;99.90;;;;;;6101643;23;20950;-82
2022/05/13 08:58:59;;;;;;;3.90;2.90;;;24.00;99.90;;;;;;6110545;23;20461;-83
2022/05/13 09:01:32;;;;;;;5.70;2.90;;;24.20;99.90;;;;;;6111676;23;20441;-82
2022/05/13 09:04:02;;;;;;;5.00;3.10;;;24.60;99.90;;;;;;6103383;23;20450;-82
2022/05/13 09:06:37;;;;;;;4.30;2.70;;;24.30;99.90;;;;;;6113342;23;20452;-82
2022/05/13 09:09:08;;;;;;;6.63;2.67;;;24.10;99.90;;;;;;6111187;23;20535;-82
2022/05/13 09:11:42;;;;;;;5.10;3.00;;;24.00;99.90;;;;;;6109883;23;21215;-82
2022/05/13 09:14:18;;;;;;;4.13;2.60;;;24.40;99.90;;;;;;6115345;23;21491;-82
2022/05/13 09:16:53;;;;;;;4.03;2.33;;;24.00;98.90;;;;;;6102531;23;20784;-82
2022/05/13 09:19:28;;;;;;;3.93;2.23;;;24.00;99.60;;;;;;6113515;23;20544;-82
2022/05/13 09:21:55;;;;;;;4.10;2.37;;;24.00;99.20;;;;;;6107771;23;20440;-82
2022/05/13 09:24:25;;;;;;;4.10;2.73;;;24.60;98.00;;;;;;6100362;23;20451;-83
2022/05/13 09:26:52;;;;;;;3.30;2.17;;;24.70;98.10;;;;;;6099961;23;20468;-82
2022/05/13 09:29:20;;;;;;;2.77;2.37;;;24.90;96.60;;;;;;6115727;23;20442;-83
2022/05/13 09:32:00;;;;;;;3.70;2.30;;;24.80;96.50;;;;;;6114005;23;20509;-82
2022/05/13 09:34:35;;;;;;;3.13;2.50;;;25.40;95.60;;;;;;6091218;23;20473;-82
2022/05/13 09:37:12;;;;;;;4.33;2.20;;;25.90;94.40;;;;;;6090646;23;20885;-81
2022/05/13 09:39:43;;;;;;;3.10;2.10;;;26.20;93.20;;;;;;6104051;23;20449;-83
2022/05/13 09:42:21;;;;;;;3.43;2.37;;;26.60;92.90;;;;;;6107027;23;20433;-83
2022/05/13 09:44:51;;;;;;;5.53;2.70;;;26.30;91.60;;;;;;6099415;23;20461;-82
2022/05/13 09:47:28;;;;;;;4.90;3.00;;;25.60;92.10;;;;;;6108152;23;20465;-83
2022/05/13 09:49:55;;;;;;;3.00;2.37;;;25.20;92.70;;;;;;6105446;23;20939;-83
2022/05/13 09:52:29;;;;;;;5.07;3.70;;;24.80;93.60;;;;;;6111719;23;20439;-83
2022/05/13 09:55:06;;;;;;;6.37;3.87;;;24.20;97.20;;;;;;6111938;23;20544;-83
2022/05/13 09:57:35;;;;;;;11.00;3.60;;;23.80;97.80;;;;;;6114735;23;20520;-83
2022/05/13 10:00:07;;;;;;;4.77;3.17;;;23.50;98.80;;;;;;6103835;23;20513;-83
2022/05/13 10:02:36;;;;;;;6.43;3.30;;;23.30;99.00;;;;;;6120612;23;20516;-83
2022/05/13 10:05:16;;;;;;;3.90;3.27;;;23.10;99.30;;;;;;6116729;23;20592;-83
2022/05/13 10:07:55;;;;;;;7.50;3.80;;;23.20;99.60;;;;;;6117916;23;20531;-83
2022/05/13 10:16:02;;;;;;;5.33;3.27;;;23.10;99.40;;;;;;6097832;23;20464;-84
2022/05/13 10:18:32;;;;;;;3.97;3.50;;;23.00;99.80;;;;;;6103757;23;20460;-82
2022/05/13 10:21:05;;;;;;;4.17;2.83;;;23.20;99.80;;;;;;6114928;23;20788;-82
2022/05/13 10:23:37;;;;;;;6.10;3.20;;;23.70;99.80;;;;;;6101969;23;20537;-82
2022/05/13 10:26:09;;;;;;;4.00;3.10;;;24.50;98.20;;;;;;6096798;23;20472;-82
2022/05/13 10:28:40;;;;;;;5.60;3.10;;;24.80;97.50;;;;;;6113696;23;20484;-82
2022/05/13 10:31:11;;;;;;;3.30;3.00;;;25.10;96.60;;;;;;6103266;23;20435;-82
2022/05/13 10:33:43;;;;;;;3.40;3.10;;;25.00;95.20;;;;;;6106404;23;20454;-83
2022/05/13 10:36:16;;;;;;;4.53;3.10;;;25.00;95.70;;;;;;6107223;23;20433;-82
2022/05/13 10:38:49;;;;;;;5.27;2.90;;;25.10;94.50;;;;;;6137223;23;20473;-82
2022/05/13 10:41:29;;;;;;;4.73;2.53;;;24.90;94.70;;;;;;6137640;23;20517;-82
2022/05/13 10:44:00;;;;;;;2.83;2.50;;;24.50;95.00;;;;;;6110798;23;20453;-83
2022/05/13 10:46:38;;;;;;;7.13;3.63;;;24.40;95.70;;;;;;6111110;23;20518;-82
2022/05/13 10:49:05;;;;;;;3.80;3.10;;;24.20;95.40;;;;;;6111264;23;20445;-82
2022/05/13 10:51:38;;;;;;;3.50;2.50;;;23.90;94.80;;;;;;6115553;23;20547;-84
2022/05/13 10:54:19;;;;;;;3.90;3.40;;;23.70;95.60;;;;;;6087042;23;20822;-83
2022/05/13 10:57:00;;;;;;;6.00;3.63;;;23.40;95.80;;;;;;6113516;23;20540;-87
2022/05/13 10:59:48;;;;;;;5.43;2.93;;;23.30;95.70;;;;;;6113845;23;20465;-82
2022/05/13 11:02:49;;;;;;;5.83;3.20;;;23.80;96.10;;;;;;6106974;23;20458;-83
2022/05/13 11:05:41;;;;;;;4.60;2.80;;;24.50;94.90;;;;;;6061840;23;20484;-82
2022/05/13 11:08:18;;;;;;;3.73;2.70;;;24.50;95.70;;;;;;6108646;23;20928;-83
2022/05/13 11:10:53;;;;;;;4.13;2.50;;;24.80;94.30;;;;;;6110972;23;20524;-82
2022/05/13 11:13:39;;;;;;;3.30;2.70;;;24.80;93.80;;;;;;6112385;23;20506;-83
2022/05/13 11:16:13;;;;;;;3.53;2.63;;;25.00;93.60;;;;;;6111925;23;20936;-81
2022/05/13 11:18:47;;;;;;;2.80;2.60;;;25.10;94.40;;;;;;6107815;23;20462;-82
2022/05/13 11:21:27;;;;;;;3.90;2.60;;;25.70;93.30;;;;;;6096310;23;20434;-82
2022/05/13 11:27:00;;;;;;;3.60;2.50;;;26.50;91.50;;;;;;6095314;23;20530;-82
2022/05/13 11:29:34;;;;;;;3.30;3.00;;;26.90;90.80;;;;;;6063571;23;20455;-82
2022/05/13 11:32:25;;;;;;;4.90;2.90;;;25.90;90.90;;;;;;6098296;23;21349;-82
2022/05/13 11:35:20;;;;;;;7.00;2.50;;;25.70;91.60;;;;;;6101079;23;20453;-82
2022/05/13 11:37:47;;;;;;;3.60;2.70;;;25.90;91.50;;;;;;6099923;23;20442;-82
2022/05/13 11:40:26;;;;;;;5.40;2.80;;;25.40;91.30;;;;;;6103180;23;20434;-82
2022/05/13 11:43:22;;;;;;;5.70;3.10;;;24.90;92.00;;;;;;6111809;23;20439;-82
2022/05/13 11:46:22;;;;;;;3.27;2.70;;;23.80;93.40;;;;;;6112832;23;20503;-82
2022/05/13 11:48:52;;;;;;;6.80;2.97;;;23.40;93.00;;;;;;6116669;23;20513;-91
2022/05/13 11:51:21;;;;;;;4.63;2.73;;;23.50;94.00;;;;;;6111587;23;20452;-82
2022/05/13 11:53:52;;;;;;;3.57;2.63;;;23.50;94.30;;;;;;6108202;23;20496;-84
2022/05/13 11:56:32;;;;;;;5.13;2.77;;;24.00;94.30;;;;;;6114673;23;21045;-84
2022/05/13 11:59:01;;;;;;;3.67;2.70;;;24.60;93.60;;;;;;6103088;23;20472;-85
2022/05/13 12:02:09;;;;;;;3.67;2.90;;;24.70;93.70;;;;;;6105405;23;20441;-87
2022/05/13 12:04:58;;;;;;;4.77;2.80;;;24.80;92.90;;;;;;6095029;23;20540;-84
2022/05/13 12:07:31;;;;;;;5.07;3.00;;;24.30;93.10;;;;;;6106032;23;20449;-86
2022/05/13 12:10:00;;;;;;;3.47;2.80;;;24.50;94.10;;;;;;6103422;23;20434;-86
2022/05/13 12:12:44;;;;;;;4.47;2.87;;;24.70;93.60;;;;;;6096367;23;20499;-87
2022/05/13 12:15:25;;;;;;;4.47;2.60;;;24.80;93.10;;;;;;6104616;23;20957;-84
2022/05/13 12:18:01;;;;;;;3.50;2.70;;;24.70;92.40;;;;;;6099298;23;20433;-84
2022/05/13 12:20:39;;;;;;;3.23;2.90;;;24.80;92.20;;;;;;6111027;23;20532;-81
2022/05/13 12:23:15;;;;;;;3.37;2.20;;;24.70;92.00;;;;;;6115565;23;20984;-81
2022/05/13 12:25:51;;;;;;;3.83;2.20;;;25.00;92.30;;;;;;6122383;23;20440;-81
2022/05/13 12:28:31;;;;;;;2.50;2.10;;;25.20;91.30;;;;;;6147379;23;20448;-82
2022/05/13 12:30:58;;;;;;;3.53;2.40;;;25.40;91.50;;;;;;6141755;23;20510;-81
2022/05/13 12:33:36;;;;;;;2.37;2.10;;;26.10;92.20;;;;;;6134962;23;21026;-81
2022/05/13 12:39:12;;;;;;;2.63;2.30;;;26.00;90.70;;;;;;6123850;23;20453;-80
2022/05/13 12:41:54;;;;;;;3.03;2.30;;;25.70;90.20;;;;;;6141708;23;20433;-81
2022/05/13 12:44:36;;;;;;;3.13;2.27;;;25.40;90.50;;;;;;6134881;23;20445;-80
2022/05/13 12:47:30;;;;;;;3.60;2.13;;;24.80;90.60;;;;;;6131634;23;20422;-80
2022/05/13 12:50:19;;;;;;;2.83;2.00;;;25.00;89.70;;;;;;6111890;23;20932;-81
2022/05/13 12:52:46;;;;;;;2.63;2.03;;;24.90;89.40;;;;;;6120456;23;20430;-80
2022/05/13 12:55:20;;;;;;;2.83;1.90;;;24.60;87.80;;;;;;6119408;23;20959;-81
2022/05/13 12:57:51;;;;;;;3.57;2.00;;;24.80;88.20;;;;;;6111970;23;20433;-81
2022/05/13 13:00:21;;;;;;;3.33;1.87;;;25.30;88.20;;;;;;6104316;23;20867;-81
2022/05/13 13:02:51;;;;;;;3.53;2.33;;;25.80;86.20;;;;;;6113776;23;20457;-88
2022/05/13 13:05:24;;;;;;;4.70;1.90;;;26.00;85.00;;;;;;6126777;23;20469;-81
2022/05/13 13:08:04;;;;;;;3.40;1.97;;;26.30;83.60;;;;;;6120912;23;20457;-81
2022/05/13 13:10:32;;;;;;;3.57;2.13;;;26.90;84.40;;;;;;6111790;23;20977;-81
2022/05/13 13:13:07;;;;;;;3.30;1.90;;;27.70;81.20;;;;;;6113711;23;20479;-82
2022/05/13 13:15:38;;;;;;;3.57;1.60;;;28.20;79.90;;;;;;6112871;23;20469;-81
2022/05/13 13:18:09;;;;;;;2.93;1.60;;;28.90;76.10;;;;;;6115782;23;20543;-81
2022/05/13 13:20:50;;;;;;;3.27;1.90;;;29.80;72.60;;;;;;6112155;23;20496;-82
2022/05/13 13:23:19;;;;;;;2.40;1.47;;;30.50;68.90;;;;;;6103073;23;20450;-81
2022/05/13 13:25:50;;;;;;;2.20;1.53;;;31.50;68.50;;;;;;6099707;23;21210;-81
2022/05/13 13:28:25;;;;;;;2.23;1.80;;;33.10;63.50;;;;;;6129799;23;20532;-81
2022/05/13 13:30:56;;;;;;;3.60;1.90;;;34.60;59.10;;;;;;6129301;23;20429;-81
2022/05/13 13:33:27;;;;;;;5.67;1.60;;;35.20;53.50;;;;;;6114930;23;21081;-80